createdAt,value
2019-01-19T00:01:44.764Z,20.70
2019-01-19T00:04:22.371Z,22.63
2019-01-19T00:07:00.647Z,22.80
2019-01-19T00:09:32.531Z,23.63
2019-01-19T00:12:19.592Z,25.30
2019-01-19T00:14:59.265Z,23.60
2019-01-19T00:18:02.166Z,24.50
2019-01-19T00:20:46.497Z,23.07
2019-01-19T00:23:27.494Z,23.73
2019-01-19T00:26:29.901Z,23.70
2019-01-19T00:29:00.944Z,24.90
2019-01-19T00:31:31.671Z,23.60
2019-01-19T00:34:18.842Z,22.93
2019-01-19T00:36:59.042Z,22.80
2019-01-19T00:39:58.287Z,24.40
2019-01-19T00:43:03.700Z,22.97
2019-01-19T00:46:00.349Z,23.83
2019-01-19T00:48:33.964Z,23.43
2019-01-19T00:51:37.781Z,22.67
2019-01-19T00:54:08.764Z,22.07
2019-01-19T00:56:48.855Z,23.63
2019-01-19T00:59:22.216Z,24.37
2019-01-19T01:02:15.126Z,24.23
2019-01-19T01:04:51.178Z,23.90
2019-01-19T01:07:37.351Z,25.10
2019-01-19T01:10:36.786Z,24.47
2019-01-19T01:13:14.115Z,24.97
2019-01-19T01:16:00.011Z,24.73
2019-01-19T01:18:44.496Z,25.43
2019-01-19T01:21:26.643Z,23.97
2019-01-19T01:24:20.060Z,23.47
2019-01-19T01:27:10.459Z,25.80
2019-01-19T01:30:00.784Z,23.60
2019-01-19T01:32:54.119Z,25.17
2019-01-19T01:35:47.438Z,25.30
2019-01-19T01:38:37.409Z,24.53
2019-01-19T01:41:18.451Z,25.87
2019-01-19T01:44:17.428Z,25.63
2019-01-19T01:47:12.157Z,25.00
2019-01-19T01:50:05.573Z,26.07
2019-01-19T01:52:44.614Z,26.93
2019-01-19T01:55:20.803Z,24.33
2019-01-19T01:57:57.732Z,26.80
2019-01-19T02:00:38.667Z,24.87
2019-01-19T02:03:12.767Z,25.17
2019-01-19T02:06:02.149Z,24.77
2019-01-19T02:08:55.204Z,25.53
2019-01-19T02:11:42.231Z,25.87
2019-01-19T02:14:38.609Z,25.97
2019-01-19T02:17:24.294Z,25.83
2019-01-19T02:20:14.300Z,26.53
2019-01-19T02:22:50.578Z,26.10
2019-01-19T02:25:36.520Z,24.40
2019-01-19T02:28:35.612Z,24.17
2019-01-19T02:31:11.537Z,25.03
2019-01-19T02:33:48.665Z,26.23
2019-01-19T02:36:19.773Z,26.20
2019-01-19T02:39:09.078Z,25.73
2019-01-19T02:41:50.596Z,25.27
2019-01-19T02:44:33.274Z,24.37
2019-01-19T02:47:19.239Z,25.07
2019-01-19T02:49:59.559Z,22.67
2019-01-19T02:53:01.913Z,25.60
2019-01-19T02:55:44.354Z,24.90
2019-01-19T02:58:33.812Z,23.30
2019-01-19T03:01:05.739Z,22.43
2019-01-19T03:03:49.330Z,22.73
2019-01-19T03:06:35.352Z,23.43
2019-01-19T03:09:10.275Z,23.13
2019-01-19T03:11:54.968Z,23.33
2019-01-19T03:14:32.512Z,23.30
2019-01-19T03:17:28.483Z,23.30
2019-01-19T03:20:24.786Z,21.23
2019-01-19T03:23:11.812Z,22.97
2019-01-19T03:25:53.339Z,22.43
2019-01-19T03:28:43.375Z,22.10
2019-01-19T03:31:36.484Z,22.77
2019-01-19T03:34:22.699Z,21.63
2019-01-19T03:37:08.598Z,22.37
2019-01-19T03:39:45.057Z,22.83
2019-01-19T03:42:29.125Z,22.20
2019-01-19T03:45:14.373Z,22.93
2019-01-19T03:48:10.526Z,23.70
2019-01-19T03:50:43.879Z,23.73
2019-01-19T03:53:34.148Z,21.57
2019-01-19T03:56:18.090Z,21.83
2019-01-19T03:58:53.069Z,21.63
2019-01-19T04:01:37.811Z,22.67
2019-01-19T04:04:13.179Z,23.00
2019-01-19T04:07:09.200Z,22.07
2019-01-19T04:09:56.009Z,21.60
2019-01-19T04:12:31.926Z,21.50
2019-01-19T04:15:34.394Z,21.40
2019-01-19T04:18:08.465Z,21.20
2019-01-19T04:21:04.475Z,21.97
2019-01-19T04:23:32.554Z,20.77
2019-01-19T04:26:08.835Z,20.93
2019-01-19T04:28:37.191Z,22.23
2019-01-19T04:31:05.048Z,20.33
2019-01-19T04:33:32.843Z,21.67
2019-01-19T04:36:00.757Z,20.00
2019-01-19T04:38:30.592Z,21.57
2019-01-19T04:40:58.436Z,20.93
2019-01-19T04:43:26.276Z,20.70
2019-01-19T04:45:54.093Z,21.83
2019-01-19T04:48:22.814Z,20.57
2019-01-19T04:50:50.733Z,19.57
2019-01-19T04:53:18.552Z,19.50
2019-01-19T04:55:46.586Z,19.47
2019-01-19T04:58:14.407Z,18.63
2019-01-19T05:00:42.221Z,19.57
2019-01-19T05:03:10.058Z,19.47
2019-01-19T05:05:37.916Z,19.17
2019-01-19T05:08:05.833Z,19.53
2019-01-19T05:10:33.640Z,19.13
2019-01-19T05:13:01.552Z,18.80
2019-01-19T05:15:29.444Z,19.60
2019-01-19T05:17:57.500Z,19.77
2019-01-19T05:20:25.486Z,20.20
2019-01-19T05:22:53.347Z,20.20
2019-01-19T05:25:21.147Z,20.60
2019-01-19T05:27:48.987Z,20.67
2019-01-19T05:30:17.943Z,19.70
2019-01-19T05:32:45.859Z,18.97
2019-01-19T05:35:13.919Z,18.37
2019-01-19T05:37:41.768Z,18.63
2019-01-19T05:40:10.054Z,18.80
2019-01-19T05:42:37.946Z,18.40
2019-01-19T05:45:06.216Z,17.80
2019-01-19T05:47:34.086Z,18.63
2019-01-19T05:50:02.014Z,17.60
2019-01-19T05:52:29.869Z,18.20
2019-01-19T05:54:57.773Z,16.73
2019-01-19T05:57:25.761Z,17.83
2019-01-19T05:59:53.608Z,15.77
2019-01-19T06:02:23.440Z,15.67
2019-01-19T06:04:51.280Z,14.83
2019-01-19T06:07:19.173Z,16.57
2019-01-19T06:09:47.063Z,16.00
2019-01-19T06:12:14.954Z,16.03
2019-01-19T06:14:42.874Z,14.83
2019-01-19T06:17:10.751Z,15.03
2019-01-19T06:19:38.752Z,15.47
2019-01-19T06:22:07.092Z,15.13
2019-01-19T06:24:34.928Z,15.97
2019-01-19T06:27:02.837Z,14.57
2019-01-19T06:29:30.711Z,14.80
2019-01-19T06:31:58.565Z,15.27
2019-01-19T06:34:26.577Z,14.57
2019-01-19T06:36:55.078Z,14.50
2019-01-19T06:39:23.476Z,14.60
2019-01-19T06:41:51.334Z,15.00
2019-01-19T06:44:19.247Z,14.17
2019-01-19T06:46:47.116Z,14.53
2019-01-19T06:49:16.523Z,13.70
2019-01-19T06:51:44.539Z,13.97
2019-01-19T06:54:13.269Z,13.90
2019-01-19T06:56:41.133Z,12.57
2019-01-19T06:59:17.143Z,13.60
2019-01-19T07:01:39.535Z,13.80
2019-01-19T07:04:07.455Z,13.10
2019-01-19T07:06:35.517Z,12.83
2019-01-19T07:09:04.102Z,13.90
2019-01-19T07:11:32.450Z,13.10
2019-01-19T07:14:00.879Z,13.47
2019-01-19T07:16:28.768Z,13.10
2019-01-19T07:18:56.596Z,12.43
2019-01-19T07:21:24.400Z,12.57
2019-01-19T07:23:52.275Z,12.47
2019-01-19T07:26:20.170Z,11.83
2019-01-19T07:28:48.078Z,12.07
2019-01-19T07:31:15.912Z,12.13
2019-01-19T07:33:44.120Z,12.60
2019-01-19T07:36:12.137Z,12.87
2019-01-19T07:38:40.030Z,11.80
2019-01-19T07:41:07.979Z,12.30
2019-01-19T07:43:36.031Z,12.10
2019-01-19T07:46:05.102Z,13.33
2019-01-19T07:48:33.014Z,13.13
2019-01-19T07:51:01.289Z,12.27
2019-01-19T07:53:29.433Z,13.07
2019-01-19T07:55:57.312Z,13.33
2019-01-19T07:58:25.198Z,12.70
2019-01-19T08:00:53.257Z,12.70
2019-01-19T08:03:21.092Z,11.27
2019-01-19T08:05:48.990Z,12.03
2019-01-19T08:08:16.985Z,12.20
2019-01-19T08:10:44.822Z,11.27
2019-01-19T08:13:14.383Z,11.43
2019-01-19T08:15:42.267Z,11.60
2019-01-19T08:18:10.168Z,10.80
2019-01-19T08:20:38.059Z,10.77
2019-01-19T08:23:05.894Z,11.00
2019-01-19T08:25:33.754Z,10.30
2019-01-19T08:28:01.607Z,11.00
2019-01-19T08:30:30.039Z,9.63
2019-01-19T08:32:58.001Z,10.23
2019-01-19T08:35:25.869Z,10.03
2019-01-19T08:37:54.116Z,9.70
2019-01-19T08:40:23.129Z,10.20
2019-01-19T08:42:57.945Z,9.60
2019-01-19T08:45:25.811Z,9.83
2019-01-19T08:47:53.830Z,9.27
2019-01-19T08:50:21.700Z,9.83
2019-01-19T08:52:49.616Z,9.40
2019-01-19T08:55:17.483Z,9.23
2019-01-19T08:57:45.468Z,9.60
2019-01-19T09:00:14.519Z,8.97
2019-01-19T09:02:42.472Z,9.23
2019-01-19T09:05:10.506Z,9.60
2019-01-19T09:07:38.407Z,9.57
2019-01-19T09:10:07.595Z,10.00
2019-01-19T09:12:35.500Z,9.90
2019-01-19T09:15:03.538Z,9.70
2019-01-19T09:17:32.679Z,9.27
2019-01-19T09:20:01.502Z,8.53
2019-01-19T09:22:29.511Z,7.40
2019-01-19T09:24:57.464Z,7.37
2019-01-19T09:27:25.783Z,6.77
2019-01-19T09:29:53.618Z,7.27
2019-01-19T09:32:21.690Z,6.90
2019-01-19T09:34:49.627Z,6.57
2019-01-19T09:37:17.781Z,6.47
2019-01-19T09:39:45.699Z,6.73
2019-01-19T09:42:13.733Z,6.50
2019-01-19T09:44:41.864Z,6.47
2019-01-19T09:47:09.705Z,5.90
2019-01-19T09:49:37.666Z,6.20
2019-01-19T09:52:05.575Z,5.93
2019-01-19T09:54:33.544Z,6.27
2019-01-19T09:57:01.720Z,5.87
2019-01-19T09:59:29.631Z,6.60
2019-01-19T10:01:57.510Z,5.60
2019-01-19T10:04:27.021Z,5.50
2019-01-19T10:06:54.904Z,5.67
2019-01-19T10:09:23.079Z,5.43
2019-01-19T10:11:51.415Z,5.63
2019-01-19T10:14:19.508Z,5.63
2019-01-19T10:16:47.768Z,5.47
2019-01-19T10:19:16.114Z,5.30
2019-01-19T10:21:44.029Z,5.40
2019-01-19T10:24:11.981Z,5.17
2019-01-19T10:26:39.832Z,5.50
2019-01-19T10:29:08.194Z,5.40
2019-01-19T10:31:36.082Z,5.50
2019-01-19T10:34:03.999Z,5.20
2019-01-19T10:36:31.833Z,5.10
2019-01-19T10:39:00.075Z,4.80
2019-01-19T10:41:29.368Z,4.90
2019-01-19T10:43:57.486Z,5.10
2019-01-19T10:46:25.333Z,5.23
2019-01-19T10:48:53.268Z,5.60
2019-01-19T10:51:21.206Z,5.53
2019-01-19T10:53:49.106Z,5.03
2019-01-19T10:56:17.020Z,5.00
2019-01-19T10:58:44.951Z,4.93
2019-01-19T11:01:12.908Z,4.97
2019-01-19T11:03:40.768Z,5.00
2019-01-19T11:06:08.730Z,4.90
2019-01-19T11:08:36.637Z,4.83
2019-01-19T11:11:04.544Z,4.97
2019-01-19T11:13:32.524Z,5.00
2019-01-19T11:16:00.370Z,5.37
2019-01-19T11:18:28.200Z,5.40
2019-01-19T11:20:56.244Z,4.80
2019-01-19T11:23:24.177Z,5.10
2019-01-19T11:25:52.221Z,5.90
2019-01-19T11:28:20.028Z,4.97
2019-01-19T11:30:47.926Z,5.37
2019-01-19T11:33:15.821Z,5.10
2019-01-19T11:35:43.656Z,5.03
2019-01-19T11:38:12.143Z,4.60
2019-01-19T11:40:40.211Z,4.37
2019-01-19T11:43:08.902Z,4.80
2019-01-19T11:45:38.162Z,4.80
2019-01-19T11:48:06.148Z,4.60
2019-01-19T11:50:33.996Z,5.23
2019-01-19T11:53:01.817Z,5.40
2019-01-19T11:55:29.779Z,4.90
2019-01-19T11:57:58.864Z,5.27
2019-01-19T12:00:27.840Z,4.63
2019-01-19T12:02:55.692Z,5.20
2019-01-19T12:05:23.620Z,5.03
2019-01-19T12:07:51.440Z,5.13
2019-01-19T12:10:23.316Z,4.63
2019-01-19T12:12:51.333Z,4.93
2019-01-19T12:15:19.178Z,4.80
2019-01-19T12:17:47.018Z,4.50
2019-01-19T12:20:19.001Z,4.20
2019-01-19T12:22:46.895Z,4.60
2019-01-19T12:25:15.595Z,4.60
2019-01-19T12:27:43.391Z,4.10
2019-01-19T12:30:13.327Z,4.90
2019-01-19T12:32:41.264Z,4.40
2019-01-19T12:35:09.119Z,4.67
2019-01-19T12:37:36.951Z,5.03
2019-01-19T12:40:05.183Z,4.33
2019-01-19T12:42:33.088Z,4.73
2019-01-19T12:45:00.909Z,4.73
2019-01-19T12:47:28.812Z,4.03
2019-01-19T12:49:56.658Z,4.40
2019-01-19T12:52:24.507Z,4.40
2019-01-19T12:54:52.463Z,4.10
2019-01-19T12:57:20.287Z,4.30
2019-01-19T12:59:48.104Z,4.47
2019-01-19T13:02:15.994Z,4.20
2019-01-19T13:04:43.806Z,3.80
2019-01-19T13:07:12.983Z,4.43
2019-01-19T13:09:45.220Z,4.40
2019-01-19T13:12:21.604Z,4.47
2019-01-19T13:15:17.633Z,4.17
2019-01-19T13:18:10.417Z,4.10
2019-01-19T13:20:44.832Z,4.33
2019-01-19T13:23:37.704Z,4.20
2019-01-19T13:26:30.936Z,4.13
2019-01-19T13:29:16.919Z,4.90
2019-01-19T13:32:04.968Z,4.67
2019-01-19T13:34:48.912Z,4.53
2019-01-19T13:37:37.492Z,4.23
2019-01-19T13:40:27.431Z,3.73
2019-01-19T13:43:23.749Z,4.20
2019-01-19T13:46:21.425Z,4.13
2019-01-19T13:48:58.361Z,4.00
2019-01-19T13:51:50.117Z,4.47
2019-01-19T13:54:46.189Z,4.50
2019-01-19T13:57:33.197Z,4.53
2019-01-19T14:00:35.654Z,4.40
2019-01-19T14:03:23.236Z,4.60
2019-01-19T14:06:10.311Z,5.67
2019-01-19T14:08:56.133Z,5.40
2019-01-19T14:11:52.280Z,5.90
2019-01-19T14:14:48.286Z,5.90
2019-01-19T14:17:23.814Z,6.00
2019-01-19T14:20:09.688Z,5.80
2019-01-19T14:22:57.893Z,6.83
2019-01-19T14:25:39.272Z,6.50
2019-01-19T14:28:30.186Z,6.43
2019-01-19T14:31:23.353Z,7.47
2019-01-19T14:33:55.847Z,6.83
2019-01-19T14:36:46.238Z,7.43
2019-01-19T14:39:36.432Z,6.93
2019-01-19T14:42:26.697Z,6.47
2019-01-19T14:45:25.928Z,6.60
2019-01-19T14:48:18.915Z,7.00
2019-01-19T14:51:04.860Z,6.50
2019-01-19T14:53:55.156Z,6.97
2019-01-19T14:56:42.347Z,6.97
2019-01-19T14:59:17.729Z,7.10
2019-01-19T15:02:03.438Z,7.47
2019-01-19T15:04:56.347Z,6.97
2019-01-19T15:07:55.848Z,6.57
2019-01-19T15:10:46.145Z,6.93
2019-01-19T15:13:22.079Z,7.20
2019-01-19T15:16:18.391Z,7.13
2019-01-19T15:19:11.312Z,7.43
2019-01-19T15:21:59.954Z,7.57
2019-01-19T15:24:34.999Z,7.10
2019-01-19T15:27:25.022Z,7.37
2019-01-19T15:30:10.543Z,7.53
2019-01-19T15:32:56.096Z,7.07
2019-01-19T15:35:58.264Z,7.57
2019-01-19T15:38:57.422Z,7.27
2019-01-19T15:41:43.579Z,8.07
2019-01-19T15:44:22.432Z,7.67
2019-01-19T15:47:24.582Z,7.60
2019-01-19T15:50:18.199Z,7.80
2019-01-19T15:53:20.386Z,7.77
2019-01-19T15:56:06.025Z,7.60
2019-01-19T15:58:39.686Z,7.77
2019-01-19T16:01:25.311Z,8.13
2019-01-19T16:04:18.226Z,7.13
2019-01-19T16:06:52.360Z,7.97
2019-01-19T16:09:42.150Z,7.70
2019-01-19T16:12:46.133Z,8.47
2019-01-19T16:15:33.466Z,8.17
2019-01-19T16:18:23.248Z,8.53
2019-01-19T16:21:16.086Z,8.70
2019-01-19T16:23:47.972Z,7.87
2019-01-19T16:26:36.171Z,8.33
2019-01-19T16:29:23.841Z,7.87
2019-01-19T16:31:56.787Z,8.37
2019-01-19T16:34:43.792Z,8.07
2019-01-19T16:37:18.254Z,8.07
2019-01-19T16:40:01.164Z,8.50
2019-01-19T16:42:46.825Z,8.50
2019-01-19T16:45:22.406Z,8.53
2019-01-19T16:48:21.717Z,8.33
2019-01-19T16:51:02.255Z,7.60
2019-01-19T16:53:44.125Z,7.87
2019-01-19T16:56:36.916Z,7.23
2019-01-19T16:59:23.922Z,7.93
2019-01-19T17:01:55.228Z,7.57
2019-01-19T17:04:37.144Z,7.90
2019-01-19T17:07:19.256Z,7.70
2019-01-19T17:10:09.340Z,7.60
2019-01-19T17:12:59.209Z,8.60
2019-01-19T17:16:04.642Z,8.40
2019-01-19T17:18:54.999Z,8.17
2019-01-19T17:21:54.519Z,7.70
2019-01-19T17:24:40.300Z,7.67
2019-01-19T17:27:27.405Z,8.23
2019-01-19T17:30:17.394Z,8.07
2019-01-19T17:32:50.540Z,8.07
2019-01-19T17:35:37.520Z,8.10
2019-01-19T17:38:27.564Z,8.13
2019-01-19T17:41:29.564Z,8.57
2019-01-19T17:44:01.371Z,8.50
2019-01-19T17:46:48.382Z,8.67
2019-01-19T17:49:50.616Z,8.87
2019-01-19T17:52:40.368Z,8.53
2019-01-19T17:55:31.110Z,7.83
2019-01-19T17:58:16.800Z,8.43
2019-01-19T18:00:59.512Z,8.70
2019-01-19T18:03:49.339Z,8.50
2019-01-19T18:06:24.192Z,8.77
2019-01-19T18:09:17.008Z,9.23
2019-01-19T18:12:12.890Z,8.97
2019-01-19T18:15:05.690Z,8.97
2019-01-19T18:17:37.923Z,8.97
2019-01-19T18:20:43.338Z,8.77
2019-01-19T18:23:35.953Z,9.27
2019-01-19T18:26:21.766Z,9.17
2019-01-19T18:28:57.276Z,8.27
2019-01-19T18:31:39.729Z,8.23
2019-01-19T18:34:30.853Z,9.40
2019-01-19T18:37:20.672Z,8.87
2019-01-19T18:40:06.645Z,8.33
2019-01-19T18:43:08.824Z,7.57
2019-01-19T18:45:54.796Z,8.00
2019-01-19T18:48:41.882Z,8.40
2019-01-19T18:51:17.968Z,8.20
2019-01-19T18:54:17.006Z,8.33
2019-01-19T18:57:00.886Z,8.23
2019-01-19T18:59:50.323Z,8.40
2019-01-19T19:02:33.831Z,7.43
2019-01-19T19:05:39.136Z,8.13
2019-01-19T19:08:38.684Z,8.60
2019-01-19T19:11:28.862Z,8.97
2019-01-19T19:14:16.014Z,8.63
2019-01-19T19:17:03.973Z,7.17
2019-01-19T19:19:49.625Z,7.63
2019-01-19T19:22:39.403Z,7.77
2019-01-19T19:25:24.157Z,7.63
2019-01-19T19:28:06.532Z,7.60
2019-01-19T19:30:53.631Z,7.80
2019-01-19T19:33:37.443Z,7.60
2019-01-19T19:36:27.558Z,8.03
2019-01-19T19:39:06.769Z,7.90
2019-01-19T19:42:08.839Z,7.20
2019-01-19T19:44:58.919Z,7.47
2019-01-19T19:47:39.077Z,7.33
2019-01-19T19:50:18.095Z,8.37
2019-01-19T19:52:45.957Z,8.40
2019-01-19T19:55:13.052Z,7.33
2019-01-19T19:57:41.015Z,8.00
2019-01-19T20:00:10.916Z,7.27
2019-01-19T20:02:38.921Z,7.53
2019-01-19T20:05:07.051Z,7.53
2019-01-19T20:07:34.949Z,7.57
2019-01-19T20:10:02.803Z,7.40
2019-01-19T20:12:30.733Z,7.73
2019-01-19T20:14:58.764Z,7.80
2019-01-19T20:17:26.705Z,8.33
2019-01-19T20:19:54.538Z,7.80
2019-01-19T20:22:22.544Z,7.63
2019-01-19T20:24:50.444Z,7.37
2019-01-19T20:27:18.302Z,7.77
2019-01-19T20:29:46.192Z,8.03
2019-01-19T20:32:14.062Z,8.00
2019-01-19T20:34:41.902Z,7.83
2019-01-19T20:37:09.712Z,7.20
2019-01-19T20:39:37.604Z,8.10
2019-01-19T20:42:05.510Z,7.67
2019-01-19T20:44:33.303Z,7.73
2019-01-19T20:47:02.710Z,7.03
2019-01-19T20:49:30.577Z,7.60
2019-01-19T20:51:58.486Z,6.93
2019-01-19T20:54:26.307Z,7.27
2019-01-19T20:56:54.790Z,7.40
2019-01-19T20:59:22.594Z,7.23
2019-01-19T21:01:50.483Z,6.77
2019-01-19T21:04:18.693Z,6.33
2019-01-19T21:06:46.615Z,7.27
2019-01-19T21:09:14.454Z,7.03
2019-01-19T21:11:42.289Z,7.53
2019-01-19T21:14:10.060Z,7.17
2019-01-19T21:16:38.011Z,6.60
2019-01-19T21:19:05.851Z,6.80
2019-01-19T21:21:33.730Z,6.10
2019-01-19T21:24:01.617Z,7.07
2019-01-19T21:26:29.521Z,7.40
2019-01-19T21:28:57.359Z,6.50
2019-01-19T21:31:25.165Z,7.07
2019-01-19T21:33:53.117Z,6.83
2019-01-19T21:36:21.007Z,7.30
2019-01-19T21:38:48.824Z,7.20
2019-01-19T21:41:16.657Z,7.00
2019-01-19T21:43:44.469Z,6.80
2019-01-19T21:46:12.275Z,6.73
2019-01-19T21:48:40.191Z,7.10
2019-01-19T21:51:08.021Z,6.50
2019-01-19T21:53:35.866Z,6.70
2019-01-19T21:56:03.727Z,6.57
2019-01-19T21:58:31.529Z,6.60
2019-01-19T22:00:59.592Z,6.70
2019-01-19T22:03:27.418Z,6.37
2019-01-19T22:05:55.402Z,6.17
2019-01-19T22:08:23.380Z,6.47
2019-01-19T22:10:51.354Z,6.13
2019-01-19T22:13:19.166Z,6.17
2019-01-19T22:15:47.217Z,6.43
2019-01-19T22:18:15.769Z,6.50
2019-01-19T22:20:43.645Z,6.60
2019-01-19T22:23:11.535Z,6.37
2019-01-19T22:25:39.432Z,6.47
2019-01-19T22:28:13.702Z,6.33
2019-01-19T22:30:42.244Z,6.60
2019-01-19T22:33:19.573Z,6.23
2019-01-19T22:35:50.673Z,6.93
2019-01-19T22:38:20.223Z,6.70
2019-01-19T22:41:03.534Z,6.53
2019-01-19T22:43:34.497Z,6.10
2019-01-19T22:46:02.981Z,6.37
2019-01-19T22:48:31.095Z,6.07
2019-01-19T22:50:59.202Z,6.17
2019-01-19T22:53:27.399Z,5.33
2019-01-19T22:55:55.220Z,6.63
2019-01-19T22:58:23.006Z,6.80
2019-01-19T23:01:03.664Z,6.33
2019-01-19T23:03:32.737Z,6.10
2019-01-19T23:06:00.591Z,6.20
2019-01-19T23:08:28.449Z,7.07
2019-01-19T23:11:01.081Z,6.37
2019-01-19T23:13:25.833Z,6.50
2019-01-19T23:15:53.768Z,6.57
2019-01-19T23:18:21.586Z,6.60
2019-01-19T23:20:49.568Z,5.70
2019-01-19T23:23:17.590Z,6.27
2019-01-19T23:25:45.440Z,6.53
2019-01-19T23:28:13.275Z,6.23
2019-01-19T23:30:41.305Z,6.90
2019-01-19T23:33:09.120Z,6.87
2019-01-19T23:35:36.899Z,6.40
2019-01-19T23:38:04.729Z,6.90
2019-01-19T23:40:32.582Z,6.47
2019-01-19T23:43:00.396Z,6.77
2019-01-19T23:45:28.227Z,6.50
2019-01-19T23:47:56.095Z,6.47
2019-01-19T23:50:23.919Z,6.63
2019-01-19T23:52:51.816Z,6.60
2019-01-19T23:55:19.816Z,6.77
2019-01-19T23:57:47.602Z,6.73
